Time;durP1;ratioP1;P1;durP2;ratioP2;P2;SDS_P1;SDS_P2;PMS_P1;PMS_P2;Temp;Humidity;BMP_temperature;BMP_pressure;BME280_temperature;BME280_humidity;BME280_pressure;Samples;Min_cycle;Max_cycle;Signal;HPM_P1;HPM_P2
2023/08/05 00:01:40;;;;;;;2.83;1.30;;;19.70;76.00;;;;;;2513817;55;20942;-70
2023/08/05 00:04:08;;;;;;;3.53;2.05;;;19.70;75.90;;;;;;2491146;55;20956;-70
2023/08/05 00:06:35;;;;;;;2.70;1.60;;;19.70;75.90;;;;;;2500403;55;21027;-70
2023/08/05 00:09:03;;;;;;;2.65;1.40;;;19.70;76.00;;;;;;2514018;55;20950;-70
2023/08/05 00:11:29;;;;;;;3.62;1.60;;;19.70;75.90;;;;;;2280841;56;20951;-70
2023/08/05 00:13:56;;;;;;;2.60;1.55;;;19.70;75.90;;;;;;2514145;55;20959;-70
2023/08/05 00:16:22;;;;;;;3.28;1.70;;;19.70;75.90;;;;;;2513434;55;21006;-70
2023/08/05 00:18:48;;;;;;;3.12;1.50;;;19.70;75.90;;;;;;2482197;55;21859;-69
2023/08/05 00:21:15;;;;;;;3.37;1.70;;;19.70;75.90;;;;;;2511083;55;20998;-70
2023/08/05 00:23:41;;;;;;;3.12;1.70;;;19.70;75.90;;;;;;2513395;55;21034;-69
2023/08/05 00:26:07;;;;;;;2.75;1.50;;;19.70;76.60;;;;;;2281706;56;21399;-69
2023/08/05 00:28:34;;;;;;;3.35;1.50;;;19.60;75.80;;;;;;2280562;56;21118;-69
2023/08/05 00:31:06;;;;;;;4.47;1.67;;;19.70;75.90;;;;;;2281308;56;21034;-69
2023/08/05 00:33:33;;;;;;;2.85;1.40;;;19.70;75.90;;;;;;2514149;55;21036;-69
2023/08/05 00:36:02;;;;;;;2.80;1.27;;;19.60;75.80;;;;;;2514344;55;21444;-69
2023/08/05 00:38:29;;;;;;;3.67;1.60;;;19.70;76.00;;;;;;2281424;56;20938;-70
2023/08/05 00:40:58;;;;;;;2.28;1.30;;;19.60;75.90;;;;;;2281368;56;20946;-69
2023/08/05 00:43:27;;;;;;;2.90;1.67;;;19.60;75.80;;;;;;2513364;55;21497;-70
2023/08/05 00:45:53;;;;;;;2.92;1.50;;;19.60;75.90;;;;;;2281371;56;21026;-70
2023/08/05 00:48:19;;;;;;;2.85;1.48;;;19.60;76.00;;;;;;2514263;55;21535;-70
2023/08/05 00:50:46;;;;;;;3.17;1.50;;;19.60;76.00;;;;;;2513970;55;20966;-69
2023/08/05 00:53:14;;;;;;;3.28;1.52;;;19.60;76.00;;;;;;2493432;55;20988;-69
2023/08/05 00:55:41;;;;;;;3.53;1.37;;;19.60;76.10;;;;;;2467581;55;20930;-70
2023/08/05 00:58:07;;;;;;;3.05;1.48;;;19.60;76.00;;;;;;2514715;55;21055;-70
2023/08/05 01:00:34;;;;;;;2.42;1.30;;;19.60;76.10;;;;;;2281320;56;21085;-70
2023/08/05 01:03:02;;;;;;;2.45;1.20;;;19.60;76.10;;;;;;2281161;56;20990;-70
2023/08/05 01:05:29;;;;;;;3.03;1.62;;;19.60;76.10;;;;;;2280343;56;21353;-69
2023/08/05 01:07:55;;;;;;;3.17;1.73;;;19.60;76.10;;;;;;2513878;55;21014;-70
2023/08/05 01:10:22;;;;;;;2.78;1.60;;;19.60;76.10;;;;;;2281300;56;21017;-69
2023/08/05 01:12:48;;;;;;;2.65;1.52;;;19.60;76.10;;;;;;2281486;56;21066;-70
2023/08/05 01:15:14;;;;;;;3.17;1.62;;;19.60;76.10;;;;;;2513482;55;20947;-70
2023/08/05 01:17:40;;;;;;;2.55;1.50;;;19.60;76.80;;;;;;2281040;56;21467;-70
2023/08/05 01:20:08;;;;;;;2.40;1.33;;;19.60;76.10;;;;;;2281056;56;20947;-68
2023/08/05 01:22:42;;;;;;;2.50;1.15;;;19.60;75.90;;;;;;2514013;55;21525;-70
2023/08/05 01:25:28;;;;;;;2.10;0.90;;;19.60;75.60;;;;;;2281412;56;20962;-70
2023/08/05 01:27:55;;;;;;;3.03;1.60;;;19.60;75.20;;;;;;2247547;56;21034;-68
2023/08/05 01:30:22;;;;;;;2.60;1.45;;;19.60;75.90;;;;;;2472331;56;21418;-70
2023/08/05 01:32:49;;;;;;;2.58;1.40;;;19.60;75.90;;;;;;2472830;56;21473;-70
2023/08/05 01:35:16;;;;;;;3.00;1.48;;;19.60;75.90;;;;;;2246667;56;20941;-67
2023/08/05 01:37:43;;;;;;;3.25;1.45;;;19.60;75.90;;;;;;2472867;56;21005;-70
2023/08/05 01:40:10;;;;;;;2.97;1.48;;;19.60;75.90;;;;;;2247785;56;21485;-71
2023/08/05 01:42:37;;;;;;;2.85;1.70;;;19.60;75.90;;;;;;2472520;56;21009;-70
2023/08/05 01:45:04;;;;;;;2.92;1.70;;;19.60;75.90;;;;;;2472787;56;21081;-70
2023/08/05 01:47:31;;;;;;;3.80;1.42;;;19.60;75.90;;;;;;2472027;56;20997;-69
2023/08/05 01:49:58;;;;;;;2.97;1.50;;;19.60;75.90;;;;;;2248018;56;21637;-71
2023/08/05 01:52:27;;;;;;;2.50;1.30;;;19.60;76.00;;;;;;2246718;56;20985;-69
2023/08/05 01:54:54;;;;;;;2.50;1.37;;;19.60;75.90;;;;;;2472552;56;20965;-70
2023/08/05 01:57:20;;;;;;;7.07;1.60;;;19.60;76.10;;;;;;2247169;56;21023;-70
2023/08/05 01:59:47;;;;;;;2.70;1.35;;;19.60;76.10;;;;;;2472640;56;20965;-70
2023/08/05 02:02:14;;;;;;;3.90;1.45;;;19.60;76.10;;;;;;2246632;56;20937;-70
2023/08/05 02:04:41;;;;;;;3.60;1.50;;;19.60;76.10;;;;;;2472461;56;21017;-70
2023/08/05 02:07:08;;;;;;;2.70;1.70;;;19.60;76.10;;;;;;2473325;56;21021;-70
2023/08/05 02:09:34;;;;;;;2.80;1.50;;;19.60;76.20;;;;;;2247288;56;21361;-70
2023/08/05 02:12:03;;;;;;;3.20;1.40;;;19.60;76.20;;;;;;2472505;56;21028;-69
2023/08/05 02:14:29;;;;;;;3.25;1.40;;;19.60;76.20;;;;;;2246771;56;20969;-70
2023/08/05 02:16:56;;;;;;;2.55;1.30;;;19.60;76.20;;;;;;2248661;56;20937;-70
2023/08/05 02:19:22;;;;;;;3.90;1.20;;;19.60;76.20;;;;;;2473009;56;20981;-70
2023/08/05 02:21:52;;;;;;;2.95;1.45;;;19.60;76.20;;;;;;2472809;56;21044;-70
2023/08/05 02:24:18;;;;;;;3.20;1.50;;;19.60;76.10;;;;;;2471265;56;20961;-70
2023/08/05 02:26:44;;;;;;;3.00;1.48;;;19.60;76.00;;;;;;2236199;56;20973;-69
2023/08/05 02:29:11;;;;;;;4.32;1.50;;;19.60;76.00;;;;;;2473273;56;20961;-69
2023/08/05 02:31:37;;;;;;;3.28;1.73;;;19.40;75.70;;;;;;2247484;56;21064;-70
2023/08/05 02:34:04;;;;;;;2.72;1.45;;;19.60;76.00;;;;;;2245337;56;21000;-69
2023/08/05 02:36:31;;;;;;;2.95;1.70;;;19.60;75.90;;;;;;2464884;56;20965;-69
2023/08/05 02:38:57;;;;;;;2.90;1.70;;;19.60;75.90;;;;;;2471994;56;20982;-70
2023/08/05 02:41:23;;;;;;;3.75;2.03;;;19.50;75.80;;;;;;2472732;56;21505;-70
2023/08/05 02:43:53;;;;;;;3.22;1.50;;;19.50;75.80;;;;;;2472831;56;20989;-69
2023/08/05 02:46:20;;;;;;;2.72;1.55;;;19.50;75.60;;;;;;2472637;56;21006;-70
2023/08/05 02:48:50;;;;;;;2.62;1.40;;;19.50;75.80;;;;;;2246738;56;21055;-70
2023/08/05 02:51:16;;;;;;;4.25;1.70;;;19.50;75.60;;;;;;2473116;56;20965;-70
2023/08/05 02:53:43;;;;;;;2.50;1.50;;;19.50;75.80;;;;;;2472222;56;21590;-70
2023/08/05 02:56:12;;;;;;;2.80;1.55;;;19.50;75.80;;;;;;2247655;56;21028;-71
2023/08/05 02:58:38;;;;;;;2.33;1.30;;;19.50;75.80;;;;;;2462726;56;21426;-68
2023/08/05 03:01:06;;;;;;;2.45;1.30;;;19.50;75.80;;;;;;2247299;56;21014;-69
2023/08/05 03:03:35;;;;;;;2.30;1.30;;;19.40;75.60;;;;;;2434385;56;20961;-70
2023/08/05 03:06:03;;;;;;;4.18;1.50;;;19.40;75.40;;;;;;2505491;55;21002;-70
2023/08/05 03:08:29;;;;;;;2.33;1.35;;;19.40;75.60;;;;;;2281204;56;20948;-70
2023/08/05 03:10:59;;;;;;;2.47;1.35;;;19.40;75.50;;;;;;2514841;55;21839;-69
2023/08/05 03:13:28;;;;;;;3.45;1.40;;;19.40;75.50;;;;;;2259293;56;21471;-69
2023/08/05 03:15:55;;;;;;;3.00;1.42;;;19.40;75.40;;;;;;2511162;55;20954;-69
2023/08/05 03:18:21;;;;;;;2.55;1.50;;;19.30;75.20;;;;;;2281697;56;21013;-70
2023/08/05 03:20:48;;;;;;;3.33;1.60;;;19.30;75.20;;;;;;2514004;55;21479;-69
2023/08/05 03:23:14;;;;;;;2.87;1.60;;;19.30;75.20;;;;;;2281791;56;20982;-70
2023/08/05 03:25:40;;;;;;;5.53;1.50;;;19.20;75.00;;;;;;2513915;55;20959;-70
2023/08/05 03:28:07;;;;;;;4.78;1.58;;;19.20;75.00;;;;;;2513832;55;21452;-70
2023/08/05 03:30:33;;;;;;;3.75;1.83;;;19.20;75.00;;;;;;2280953;56;20943;-70
2023/08/05 03:33:01;;;;;;;3.10;1.77;;;19.20;75.00;;;;;;2280035;56;21756;-70
2023/08/05 03:35:27;;;;;;;3.55;1.87;;;19.10;75.00;;;;;;2512728;55;20983;-69
2023/08/05 03:37:54;;;;;;;2.85;1.67;;;19.10;75.00;;;;;;2513924;55;21014;-69
2023/08/05 03:40:20;;;;;;;3.05;1.62;;;19.10;75.00;;;;;;2514415;55;20978;-68
2023/08/05 03:42:46;;;;;;;2.83;1.40;;;19.10;75.00;;;;;;2280262;56;20942;-70
2023/08/05 03:45:16;;;;;;;2.78;1.40;;;19.00;74.90;;;;;;2513996;55;20975;-70
2023/08/05 03:47:49;;;;;;;3.42;1.60;;;19.00;74.80;;;;;;2513659;55;20978;-70
2023/08/05 03:50:16;;;;;;;4.62;1.95;;;19.00;74.80;;;;;;2281118;56;21771;-69
2023/08/05 03:52:43;;;;;;;3.05;1.65;;;19.00;74.90;;;;;;2513666;55;20983;-70
2023/08/05 03:55:09;;;;;;;3.22;1.50;;;19.00;74.90;;;;;;2281578;56;20954;-67
2023/08/05 03:57:35;;;;;;;3.58;1.80;;;18.90;74.80;;;;;;2278858;56;20967;-69
2023/08/05 04:00:02;;;;;;;3.50;1.83;;;18.90;74.90;;;;;;2508640;55;21181;-70
2023/08/05 04:02:29;;;;;;;3.45;1.75;;;18.80;74.90;;;;;;2449594;55;1239967;-70
2023/08/05 04:04:57;;;;;;;2.55;1.40;;;18.80;74.90;;;;;;2278463;56;21029;-68
2023/08/05 04:07:24;;;;;;;3.03;1.60;;;18.80;74.90;;;;;;2513899;55;20954;-69
2023/08/05 04:09:53;;;;;;;3.10;1.77;;;18.80;74.80;;;;;;2514249;55;20961;-69
2023/08/05 04:12:19;;;;;;;3.85;2.08;;;18.80;74.70;;;;;;2281796;56;20966;-70
2023/08/05 04:14:50;;;;;;;3.87;1.80;;;18.70;74.70;;;;;;2513699;55;21023;-69
2023/08/05 04:17:17;;;;;;;3.85;1.85;;;18.70;74.70;;;;;;2255898;56;21008;-69
2023/08/05 04:19:45;;;;;;;2.97;1.52;;;18.70;74.80;;;;;;2281142;56;21439;-70
2023/08/05 04:22:12;;;;;;;2.90;1.75;;;18.60;74.70;;;;;;2510003;55;20931;-68
2023/08/05 04:24:39;;;;;;;3.40;1.75;;;18.60;74.80;;;;;;2514370;55;20954;-67
2023/08/05 04:27:05;;;;;;;2.83;1.40;;;18.60;74.80;;;;;;2514794;55;20950;-69
2023/08/05 04:29:31;;;;;;;5.85;1.90;;;18.60;74.90;;;;;;2281404;56;20970;-70
2023/08/05 04:31:58;;;;;;;4.10;1.55;;;18.60;75.00;;;;;;2281192;56;21566;-69
2023/08/05 04:34:24;;;;;;;3.25;1.70;;;18.50;74.90;;;;;;2514286;55;21384;-70
2023/08/05 04:36:51;;;;;;;2.95;1.55;;;18.60;75.10;;;;;;2281496;56;20935;-72
2023/08/05 04:39:20;;;;;;;2.83;1.80;;;18.50;75.10;;;;;;2514876;55;20946;-69
2023/08/05 04:41:47;;;;;;;2.95;1.70;;;18.50;75.00;;;;;;2281255;56;20982;-69
2023/08/05 04:44:14;;;;;;;3.50;2.15;;;18.50;75.20;;;;;;2514466;55;20958;-69
2023/08/05 04:46:41;;;;;;;3.10;1.60;;;18.50;75.20;;;;;;2279745;56;21043;-69
2023/08/05 04:49:09;;;;;;;2.87;1.60;;;18.50;75.20;;;;;;2514549;55;20970;-70
2023/08/05 04:51:37;;;;;;;3.35;1.85;;;18.40;75.10;;;;;;2257819;56;21043;-68
2023/08/05 04:54:04;;;;;;;3.05;1.75;;;18.50;75.20;;;;;;2263575;56;21032;-69
2023/08/05 04:56:30;;;;;;;2.80;1.50;;;18.40;75.00;;;;;;2247290;56;21068;-69
2023/08/05 04:58:57;;;;;;;3.03;1.20;;;18.40;75.00;;;;;;2471836;56;20953;-70
2023/08/05 05:01:23;;;;;;;3.28;1.70;;;18.40;75.00;;;;;;2461369;55;20910;-69
2023/08/05 05:03:51;;;;;;;3.47;2.05;;;18.40;75.00;;;;;;2247589;56;21001;-69
2023/08/05 05:06:20;;;;;;;2.75;1.50;;;18.40;75.10;;;;;;2473583;56;21756;-69
2023/08/05 05:08:46;;;;;;;4.37;1.62;;;18.40;75.10;;;;;;2472382;56;20957;-69
2023/08/05 05:11:13;;;;;;;2.60;1.45;;;18.30;75.00;;;;;;2473140;56;21033;-69
2023/08/05 05:13:43;;;;;;;3.10;1.95;;;18.30;75.10;;;;;;2472880;56;20941;-68
2023/08/05 05:16:10;;;;;;;4.57;1.80;;;18.30;75.20;;;;;;2473448;56;21012;-69
2023/08/05 05:18:40;;;;;;;3.05;1.65;;;18.30;75.30;;;;;;2467334;55;20965;-68
2023/08/05 05:21:06;;;;;;;3.15;1.77;;;18.30;75.30;;;;;;2453632;56;21546;-69
2023/08/05 05:23:34;;;;;;;3.20;1.70;;;18.30;75.30;;;;;;2505158;55;20950;-70
2023/08/05 05:26:01;;;;;;;3.72;1.98;;;18.30;75.40;;;;;;2281224;56;21017;-70
2023/08/05 05:28:27;;;;;;;3.17;1.92;;;18.30;75.50;;;;;;2507941;55;21089;-70
2023/08/05 05:30:53;;;;;;;2.83;1.70;;;18.30;75.50;;;;;;2514312;55;21022;-69
2023/08/05 05:33:21;;;;;;;3.30;1.98;;;18.30;75.60;;;;;;2514599;55;20974;-70
2023/08/05 05:35:49;;;;;;;2.87;1.75;;;18.30;75.70;;;;;;2514731;55;21003;-68
2023/08/05 05:38:16;;;;;;;4.15;1.77;;;18.30;75.70;;;;;;2514559;55;20954;-68
2023/08/05 05:40:42;;;;;;;3.37;1.85;;;18.30;75.80;;;;;;2514099;55;21484;-70
2023/08/05 05:43:09;;;;;;;3.15;1.90;;;18.30;75.90;;;;;;2282008;56;20991;-70
2023/08/05 05:45:35;;;;;;;3.55;1.85;;;18.40;76.10;;;;;;2507357;55;21088;-70
2023/08/05 05:48:04;;;;;;;3.00;1.98;;;18.30;76.00;;;;;;2486203;55;21030;-70
2023/08/05 05:50:30;;;;;;;3.67;1.83;;;18.40;76.20;;;;;;2513300;55;20983;-69
2023/08/05 05:52:57;;;;;;;4.07;1.98;;;18.40;76.30;;;;;;2281130;56;20942;-70
2023/08/05 05:55:23;;;;;;;4.28;1.90;;;18.40;76.30;;;;;;2515069;55;20966;-70
2023/08/05 05:57:51;;;;;;;5.78;2.20;;;18.40;76.40;;;;;;2514101;55;20990;-70
2023/08/05 06:00:18;;;;;;;3.67;1.87;;;18.40;76.50;;;;;;2514232;55;20987;-69
2023/08/05 06:02:44;;;;;;;3.42;1.90;;;18.50;76.60;;;;;;2512299;55;21010;-69
2023/08/05 06:05:12;;;;;;;3.08;1.85;;;18.50;76.60;;;;;;2513471;55;20954;-70
2023/08/05 06:07:38;;;;;;;3.17;2.05;;;18.50;76.60;;;;;;2472694;56;20989;-67
2023/08/05 06:10:06;;;;;;;4.00;2.08;;;18.50;76.70;;;;;;2246888;56;20925;-69
2023/08/05 06:12:37;;;;;;;3.62;2.08;;;18.60;76.80;;;;;;2472958;55;20993;-69
2023/08/05 06:15:07;;;;;;;2.72;1.70;;;18.60;76.90;;;;;;2262178;56;21024;-69
2023/08/05 06:17:33;;;;;;;3.28;2.15;;;18.60;76.90;;;;;;2503152;55;20995;-70
2023/08/05 06:20:00;;;;;;;3.08;1.70;;;18.60;76.90;;;;;;2272356;56;20954;-70
2023/08/05 06:22:26;;;;;;;4.78;2.12;;;18.70;77.10;;;;;;2243431;56;21007;-69
2023/08/05 06:24:53;;;;;;;2.97;1.95;;;18.60;77.00;;;;;;2272268;56;21479;-69
2023/08/05 06:27:19;;;;;;;3.10;1.80;;;18.70;77.10;;;;;;2503294;55;20954;-70
2023/08/05 06:29:46;;;;;;;4.68;2.60;;;18.80;77.30;;;;;;2502871;55;21223;-70
2023/08/05 06:32:12;;;;;;;3.12;1.90;;;18.80;77.30;;;;;;2272961;56;21034;-69
2023/08/05 06:34:39;;;;;;;3.80;2.17;;;18.80;77.30;;;;;;2503079;55;21082;-67
2023/08/05 06:37:06;;;;;;;3.37;2.10;;;18.90;77.50;;;;;;2272290;56;21015;-69
2023/08/05 06:39:33;;;;;;;4.15;2.12;;;18.90;77.50;;;;;;2502757;55;20954;-71
2023/08/05 06:41:59;;;;;;;3.05;1.85;;;19.00;77.70;;;;;;2271437;56;21805;-69
2023/08/05 06:44:29;;;;;;;3.25;1.67;;;19.00;77.80;;;;;;2468120;55;21812;-72
2023/08/05 06:46:57;;;;;;;3.75;2.00;;;19.00;77.80;;;;;;2503105;55;21014;-70
2023/08/05 06:49:25;;;;;;;5.00;2.55;;;19.10;77.90;;;;;;2265691;56;21040;-71
2023/08/05 06:51:51;;;;;;;3.65;2.10;;;19.10;78.00;;;;;;2249857;56;21019;-71
2023/08/05 06:54:18;;;;;;;4.20;2.60;;;19.20;78.00;;;;;;2503453;55;20915;-70
2023/08/05 06:56:45;;;;;;;4.55;2.37;;;19.30;78.20;;;;;;2247737;56;20944;-70
2023/08/05 06:59:13;;;;;;;3.40;2.10;;;19.30;78.10;;;;;;2451864;55;20971;-70
2023/08/05 07:01:43;;;;;;;5.75;2.40;;;19.40;78.30;;;;;;2502569;55;21672;-70
2023/08/05 07:04:09;;;;;;;4.82;2.80;;;19.40;78.30;;;;;;2243416;56;20958;-69
2023/08/05 07:06:38;;;;;;;3.83;2.00;;;19.50;78.70;;;;;;2492673;55;20971;-69
2023/08/05 07:09:05;;;;;;;3.47;2.03;;;19.50;78.80;;;;;;2265018;56;20972;-70
2023/08/05 07:11:32;;;;;;;3.53;2.12;;;19.60;78.90;;;;;;2460314;55;21043;-68
2023/08/05 07:13:59;;;;;;;3.83;2.30;;;19.70;79.20;;;;;;2272887;56;20962;-70
2023/08/05 07:16:27;;;;;;;3.53;2.35;;;19.80;79.20;;;;;;2503857;55;20931;-70
2023/08/05 07:18:53;;;;;;;4.22;2.65;;;19.80;79.10;;;;;;2272399;56;20959;-70
2023/08/05 07:21:20;;;;;;;4.85;3.10;;;19.90;78.90;;;;;;2502686;55;20955;-70
2023/08/05 07:23:50;;;;;;;4.65;2.70;;;20.00;78.90;;;;;;2502742;55;20947;-70
2023/08/05 07:26:21;;;;;;;4.85;2.80;;;20.10;78.90;;;;;;2503193;55;21125;-70
2023/08/05 07:28:48;;;;;;;5.53;2.92;;;20.10;78.60;;;;;;2273314;56;20931;-71
2023/08/05 07:31:16;;;;;;;5.18;2.72;;;20.20;78.70;;;;;;2272099;56;20999;-70
2023/08/05 07:33:51;;;;;;;6.60;3.15;;;20.30;78.70;;;;;;2502958;55;21026;-69
2023/08/05 07:36:22;;;;;;;4.78;3.33;;;20.30;78.10;;;;;;2503070;55;21481;-69
2023/08/05 07:38:50;;;;;;;4.45;2.55;;;20.40;78.70;;;;;;2468335;55;20952;-69
2023/08/05 07:41:16;;;;;;;3.83;2.60;;;20.50;78.90;;;;;;2270649;56;20954;-70
2023/08/05 07:43:43;;;;;;;3.75;2.53;;;20.50;79.00;;;;;;2502895;55;21038;-71
2023/08/05 07:46:13;;;;;;;5.32;2.78;;;20.60;79.30;;;;;;2457242;55;21461;-69
2023/08/05 07:48:39;;;;;;;3.87;2.80;;;20.70;79.40;;;;;;2257235;56;20995;-69
2023/08/05 07:51:06;;;;;;;4.10;2.72;;;20.80;79.60;;;;;;2242145;56;20992;-70
2023/08/05 07:53:35;;;;;;;6.28;3.30;;;20.80;79.50;;;;;;2273026;56;21868;-71
2023/08/05 07:56:11;;;;;;;4.75;3.05;;;21.00;79.50;;;;;;2502624;55;20935;-68
2023/08/05 07:58:44;;;;;;;4.40;3.20;;;21.00;78.80;;;;;;2472220;55;21035;-70
2023/08/05 08:01:12;;;;;;;4.80;3.20;;;21.10;79.20;;;;;;2497682;55;20974;-71
2023/08/05 08:03:41;;;;;;;5.32;3.05;;;21.20;79.10;;;;;;2502770;55;21019;-68
2023/08/05 08:06:08;;;;;;;4.40;3.03;;;21.30;78.90;;;;;;2458034;55;21006;-68
2023/08/05 08:08:34;;;;;;;3.67;2.35;;;21.40;78.50;;;;;;2254500;56;20931;-69
2023/08/05 08:11:00;;;;;;;4.07;2.72;;;21.40;78.40;;;;;;2503770;55;20971;-69
2023/08/05 08:13:27;;;;;;;5.40;3.17;;;21.50;78.50;;;;;;2502967;55;21067;-69
2023/08/05 08:15:54;;;;;;;3.78;2.35;;;21.50;78.40;;;;;;2503181;55;20998;-68
2023/08/05 08:18:21;;;;;;;4.55;2.53;;;21.60;78.50;;;;;;2272623;56;21057;-69
2023/08/05 08:20:51;;;;;;;4.70;2.75;;;21.70;78.60;;;;;;2263787;56;20988;-68
2023/08/05 08:23:18;;;;;;;3.83;2.80;;;21.70;78.40;;;;;;2252944;56;21963;-69
2023/08/05 08:26:17;;;;;;;4.05;2.53;;;21.70;78.20;;;;;;2272402;56;20986;-70
2023/08/05 08:29:04;;;;;;;3.83;2.40;;;21.80;77.00;;;;;;2503100;55;20956;-70
2023/08/05 08:31:31;;;;;;;5.25;2.28;;;21.90;76.80;;;;;;2272717;56;20954;-70
2023/08/05 08:33:58;;;;;;;4.22;2.22;;;21.90;77.80;;;;;;2272279;56;21010;-70
2023/08/05 08:36:24;;;;;;;3.90;2.47;;;22.00;77.80;;;;;;2271822;56;20947;-72
2023/08/05 08:38:50;;;;;;;4.82;2.97;;;22.00;77.50;;;;;;2271693;56;21042;-69
2023/08/05 08:41:17;;;;;;;3.70;2.37;;;22.10;77.30;;;;;;2264570;56;20972;-68
2023/08/05 08:43:43;;;;;;;3.80;2.50;;;22.10;77.20;;;;;;2250958;56;20950;-68
2023/08/05 08:46:10;;;;;;;4.18;2.28;;;22.10;76.90;;;;;;2498744;55;20991;-68
2023/08/05 08:48:36;;;;;;;4.25;2.72;;;22.20;76.70;;;;;;2496573;55;20955;-68
2023/08/05 08:51:03;;;;;;;4.12;2.55;;;22.20;76.60;;;;;;2497592;55;21002;-68
2023/08/05 08:53:31;;;;;;;3.97;2.70;;;22.20;76.50;;;;;;2268405;56;21026;-68
2023/08/05 08:55:58;;;;;;;5.12;2.58;;;22.20;76.10;;;;;;2493776;55;21015;-67
2023/08/05 08:59:02;;;;;;;3.50;2.30;;;22.20;76.00;;;;;;2493536;55;21010;-69
2023/08/05 09:01:28;;;;;;;3.42;2.40;;;22.20;74.80;;;;;;2491142;55;20959;-67
2023/08/05 09:03:55;;;;;;;3.45;2.47;;;22.20;76.10;;;;;;2490441;55;21171;-66
2023/08/05 09:06:23;;;;;;;4.05;2.58;;;22.30;76.50;;;;;;2263156;56;21804;-66
2023/08/05 09:08:50;;;;;;;3.60;2.50;;;22.30;76.50;;;;;;2493938;55;20980;-65
2023/08/05 09:11:16;;;;;;;4.00;2.58;;;22.30;76.50;;;;;;2493782;55;20978;-65
2023/08/05 09:13:43;;;;;;;4.12;2.25;;;22.30;76.40;;;;;;2482415;55;21867;-66
2023/08/05 09:16:14;;;;;;;4.40;2.60;;;22.30;76.30;;;;;;2465348;55;20991;-67
2023/08/05 09:18:53;;;;;;;4.12;2.65;;;22.40;75.90;;;;;;2265049;56;21017;-66
2023/08/05 09:21:28;;;;;;;4.60;2.83;;;22.20;75.70;;;;;;2264313;56;20943;-69
2023/08/05 09:23:55;;;;;;;3.65;2.62;;;22.40;75.60;;;;;;2488056;55;21740;-66
2023/08/05 09:26:30;;;;;;;4.62;2.30;;;22.40;76.20;;;;;;2459664;55;20990;-67
2023/08/05 09:28:58;;;;;;;3.40;1.95;;;22.40;75.80;;;;;;2465765;55;21076;-66
2023/08/05 09:31:25;;;;;;;4.00;2.45;;;22.40;75.80;;;;;;2448795;55;21961;-66
2023/08/05 09:33:51;;;;;;;3.80;2.37;;;22.50;76.00;;;;;;2266516;56;21056;-67
2023/08/05 09:36:22;;;;;;;3.45;2.10;;;22.50;76.10;;;;;;2458594;55;20977;-68
2023/08/05 09:39:10;;;;;;;4.50;2.40;;;22.50;76.30;;;;;;2496724;55;21469;-68
2023/08/05 09:41:37;;;;;;;3.40;2.33;;;22.50;75.20;;;;;;2497982;55;20966;-66
2023/08/05 09:44:05;;;;;;;3.60;2.33;;;22.50;76.20;;;;;;2267201;56;21070;-66
2023/08/05 09:46:45;;;;;;;3.22;2.20;;;22.50;75.90;;;;;;2495305;55;21650;-68
2023/08/05 09:49:16;;;;;;;3.20;2.00;;;22.60;74.90;;;;;;2494100;55;21010;-66
2023/08/05 09:51:47;;;;;;;4.65;2.47;;;22.60;75.80;;;;;;2267280;56;20963;-66
2023/08/05 09:54:14;;;;;;;4.45;2.67;;;22.60;75.20;;;;;;2267713;56;21026;-67
2023/08/05 09:56:40;;;;;;;5.18;2.90;;;22.60;75.50;;;;;;2246372;57;21756;-66
2023/08/05 09:59:07;;;;;;;4.25;2.45;;;22.60;75.60;;;;;;2485777;55;20983;-71
2023/08/05 10:01:35;;;;;;;3.97;2.60;;;22.60;75.60;;;;;;2246709;56;21009;-66
2023/08/05 10:04:03;;;;;;;3.85;2.30;;;22.70;75.40;;;;;;2254227;56;21047;-65
2023/08/05 10:06:30;;;;;;;3.78;2.30;;;22.70;75.20;;;;;;2253758;56;20987;-67
2023/08/05 10:08:56;;;;;;;3.45;2.20;;;22.70;75.40;;;;;;2469919;55;20998;-65
2023/08/05 10:11:25;;;;;;;3.58;2.30;;;22.70;75.30;;;;;;2263468;56;21882;-66
2023/08/05 10:13:53;;;;;;;3.60;2.05;;;22.70;75.30;;;;;;2263371;56;21577;-66
2023/08/05 10:16:20;;;;;;;4.90;2.30;;;22.80;75.50;;;;;;2495756;55;21050;-65
2023/08/05 10:18:48;;;;;;;4.28;2.28;;;22.80;75.50;;;;;;2266641;56;21832;-66
2023/08/05 10:21:34;;;;;;;4.47;2.30;;;22.80;75.40;;;;;;2497375;55;20908;-68
2023/08/05 10:24:01;;;;;;;2.95;2.08;;;22.90;73.80;;;;;;2494866;55;21458;-66
2023/08/05 10:26:44;;;;;;;3.72;2.65;;;22.90;75.40;;;;;;2494930;55;20979;-69
2023/08/05 10:29:27;;;;;;;3.40;2.20;;;22.90;73.70;;;;;;2255212;56;21073;-66
2023/08/05 10:32:14;;;;;;;3.37;2.12;;;23.00;74.30;;;;;;2450685;55;21049;-66
2023/08/05 10:34:40;;;;;;;4.00;1.95;;;23.00;74.40;;;;;;2462440;55;22019;-66
2023/08/05 10:37:06;;;;;;;3.03;1.90;;;23.10;75.50;;;;;;2270537;56;20975;-69
2023/08/05 10:39:45;;;;;;;3.28;1.90;;;23.10;75.30;;;;;;2501545;55;21070;-69
2023/08/05 10:42:46;;;;;;;4.28;2.47;;;23.10;74.50;;;;;;2501950;55;21010;-65
2023/08/05 10:45:16;;;;;;;3.10;1.77;;;23.10;73.20;;;;;;2272534;56;21003;-66
2023/08/05 10:47:46;;;;;;;3.40;1.90;;;23.10;74.80;;;;;;2495018;55;21002;-67
2023/08/05 10:50:15;;;;;;;3.90;2.05;;;23.20;75.00;;;;;;2457388;55;21040;-66
2023/08/05 10:52:42;;;;;;;4.15;2.12;;;23.20;75.20;;;;;;2496541;55;21452;-66
2023/08/05 10:55:11;;;;;;;4.12;1.98;;;23.20;75.30;;;;;;2237012;57;21523;-66
2023/08/05 10:57:47;;;;;;;4.07;2.22;;;23.20;75.10;;;;;;2265956;56;21031;-65
2023/08/05 11:00:20;;;;;;;2.78;1.83;;;23.30;74.20;;;;;;2265381;56;20947;-67
2023/08/05 11:02:49;;;;;;;3.70;2.30;;;23.30;74.70;;;;;;2265836;56;20991;-67
2023/08/05 11:05:15;;;;;;;3.40;2.28;;;23.30;75.40;;;;;;2264677;56;21054;-66
2023/08/05 11:07:42;;;;;;;3.72;1.80;;;23.30;75.50;;;;;;2495418;55;21485;-67
2023/08/05 11:10:09;;;;;;;3.58;2.20;;;23.40;75.70;;;;;;2237545;56;21514;-66
2023/08/05 11:12:39;;;;;;;3.72;2.12;;;23.50;76.00;;;;;;2494200;55;20939;-67
2023/08/05 11:15:06;;;;;;;3.10;1.48;;;23.50;75.40;;;;;;2495943;55;21081;-66
2023/08/05 11:17:33;;;;;;;3.53;2.20;;;23.50;75.80;;;;;;2497448;55;21074;-67
2023/08/05 11:19:59;;;;;;;3.62;1.80;;;23.60;75.90;;;;;;2235361;56;21645;-65
2023/08/05 11:22:29;;;;;;;3.22;2.10;;;23.60;75.50;;;;;;2481624;55;21836;-68
2023/08/05 11:25:00;;;;;;;4.75;2.47;;;23.70;75.40;;;;;;2267452;56;20982;-67
2023/08/05 11:27:32;;;;;;;3.37;1.77;;;23.70;75.40;;;;;;2498267;55;21034;-68
2023/08/05 11:30:09;;;;;;;4.00;2.00;;;23.80;74.90;;;;;;2497387;55;21046;-66
2023/08/05 11:32:51;;;;;;;3.65;2.00;;;23.80;75.40;;;;;;2497716;55;21404;-68
2023/08/05 11:35:17;;;;;;;3.60;1.95;;;23.90;74.10;;;;;;2465550;55;21032;-67
2023/08/05 11:37:44;;;;;;;3.30;1.52;;;23.90;75.60;;;;;;2257946;56;20954;-66
2023/08/05 11:40:11;;;;;;;3.10;1.50;;;23.90;75.10;;;;;;2266701;56;21705;-67
2023/08/05 11:42:41;;;;;;;3.50;2.03;;;24.00;74.60;;;;;;2267724;56;20991;-66
2023/08/05 11:45:12;;;;;;;3.50;1.90;;;24.00;74.60;;;;;;2459280;55;20972;-66
2023/08/05 11:47:43;;;;;;;3.53;1.98;;;24.10;74.10;;;;;;2259662;56;21026;-64
2023/08/05 11:50:10;;;;;;;3.30;1.90;;;24.10;74.20;;;;;;2450357;55;21461;-65
2023/08/05 11:52:40;;;;;;;3.10;1.83;;;24.10;74.80;;;;;;2252259;56;20994;-66
2023/08/05 11:55:07;;;;;;;4.62;1.80;;;24.10;74.20;;;;;;2252859;56;21026;-67
2023/08/05 11:57:34;;;;;;;3.72;1.73;;;24.20;74.90;;;;;;2253736;56;21954;-64
2023/08/05 12:00:05;;;;;;;3.00;1.50;;;24.20;74.90;;;;;;2480737;55;20954;-67
2023/08/05 12:02:34;;;;;;;3.72;2.22;;;24.20;74.30;;;;;;2221277;56;20989;-66
2023/08/05 12:05:01;;;;;;;3.50;2.05;;;24.30;74.60;;;;;;2251579;56;21010;-66
2023/08/05 12:07:29;;;;;;;3.53;2.20;;;24.30;74.50;;;;;;2476575;55;22125;-68
2023/08/05 12:10:14;;;;;;;3.15;1.92;;;24.30;74.60;;;;;;2251097;56;20978;-68
2023/08/05 12:12:47;;;;;;;3.33;1.95;;;24.40;72.90;;;;;;2478511;55;21003;-66
2023/08/05 12:15:25;;;;;;;3.20;2.00;;;24.40;73.70;;;;;;2479806;55;22807;-64
2023/08/05 12:18:04;;;;;;;3.95;2.20;;;24.40;73.60;;;;;;2225059;57;21902;-66
2023/08/05 12:20:34;;;;;;;3.30;2.00;;;24.50;74.30;;;;;;2468312;55;21030;-68
2023/08/05 12:23:01;;;;;;;3.25;1.85;;;24.60;74.80;;;;;;2467337;55;21395;-65
2023/08/05 12:25:35;;;;;;;3.03;1.70;;;24.60;75.00;;;;;;2461454;55;21678;-67
2023/08/05 12:28:05;;;;;;;2.90;1.67;;;24.60;74.10;;;;;;2235714;56;20963;-68
2023/08/05 12:30:35;;;;;;;3.28;1.73;;;24.70;74.70;;;;;;2235706;56;21606;-66
2023/08/05 12:33:05;;;;;;;2.95;1.80;;;24.70;73.60;;;;;;2459387;55;21018;-65
2023/08/05 12:35:36;;;;;;;2.95;1.80;;;24.70;73.90;;;;;;2243104;56;20987;-64
2023/08/05 12:41:34;;;;;;;3.03;1.70;;;24.80;72.30;;;;;;2465008;55;21749;-65
2023/08/05 12:47:41;;;;;;;2.87;1.70;;;24.90;72.80;;;;;;2475257;55;20950;-66
2023/08/05 12:50:09;;;;;;;2.50;1.50;;;24.90;74.90;;;;;;2266269;56;21026;-67
2023/08/05 12:52:35;;;;;;;3.45;2.00;;;24.90;74.80;;;;;;2258413;56;21020;-66
2023/08/05 12:55:02;;;;;;;3.15;1.90;;;25.00;75.10;;;;;;2249002;56;21022;-66
2023/08/05 12:57:28;;;;;;;4.35;2.30;;;25.00;75.10;;;;;;2499461;55;21078;-67
2023/08/05 12:59:54;;;;;;;3.53;2.00;;;25.00;75.00;;;;;;2254411;56;21081;-66
2023/08/05 13:02:23;;;;;;;3.97;2.10;;;25.10;75.00;;;;;;2251255;56;20962;-67